createdAt,value
2018-08-30T04:16:42.978Z,99.90
2018-08-30T04:19:13.883Z,99.90
2018-08-30T04:21:44.809Z,99.90
2018-08-30T04:24:17.479Z,99.90
2018-08-30T04:26:48.470Z,99.90
2018-08-30T04:29:19.369Z,99.90
2018-08-30T04:31:52.394Z,99.90
2018-08-30T04:34:25.377Z,99.90
2018-08-30T04:36:58.462Z,99.90
2018-08-30T04:39:30.636Z,99.90
2018-08-30T04:42:01.561Z,99.90
2018-08-30T04:44:32.477Z,99.90
2018-08-30T04:47:03.488Z,99.90
2018-08-30T04:49:34.958Z,99.90
2018-08-30T04:52:06.685Z,99.90
2018-08-30T04:54:37.600Z,99.90
2018-08-30T04:57:37.748Z,99.90
2018-08-30T05:00:12.102Z,99.90
2018-08-30T05:02:43.644Z,99.90
2018-08-30T05:05:14.709Z,99.90
2018-08-30T05:07:45.876Z,99.90
2018-08-30T05:10:17.119Z,99.90
2018-08-30T15:39:30.556Z,62.60
2018-08-30T15:45:00.336Z,62.90
2018-08-30T15:47:31.857Z,62.70
2018-08-30T15:50:04.254Z,63.30
2018-08-30T15:52:35.034Z,64.50
2018-08-30T15:55:05.744Z,64.60
2018-08-30T15:57:36.485Z,64.90
2018-08-30T16:00:10.364Z,64.80
2018-08-30T16:02:42.729Z,64.70
2018-08-30T16:29:59.732Z,66.20
2018-08-30T16:32:30.695Z,72.90
2018-08-30T16:35:01.392Z,73.50
2018-08-30T16:37:33.499Z,75.10
2018-08-30T16:40:04.574Z,75.00
2018-08-30T16:42:35.308Z,74.90
2018-08-30T16:45:06.213Z,76.40
2018-08-30T16:47:39.200Z,77.50
2018-08-30T16:50:10.172Z,78.10
2018-08-30T16:52:41.772Z,79.30
2018-08-30T16:55:12.570Z,80.60
2018-08-30T16:57:44.466Z,81.30
2018-08-30T17:00:15.262Z,81.70
2018-08-30T17:02:46.024Z,83.00
2018-08-30T17:05:17.629Z,83.20
2018-08-30T17:07:49.539Z,83.70
2018-08-30T17:10:20.540Z,84.10
2018-08-30T17:12:51.737Z,85.90
2018-08-30T17:15:23.624Z,87.80
2018-08-30T19:18:02.127Z,90.20
2018-08-30T19:20:32.818Z,99.50
2018-08-30T19:23:05.537Z,99.10
2018-08-30T19:25:37.802Z,99.00
2018-08-30T19:28:08.641Z,99.40
2018-08-30T19:30:39.869Z,99.30
